| Time | Avg. Air Temp | Dew Point | Avg. Rel Humidity | Avg. 2 Min Wind Speed | Max Gust Velocity | MGV Time | MGV Direction | Avg. Spot Wind Velocity |
|---|---|---|---|---|---|---|---|---|
| 2026-09-02 02:30:00 | 7° C | 4° C | 85% | 18 km/h | 24 km/h | 02:26:00 | SE | 18 km/h |
| 01:30:00 | 6° C | 5° C | 94% | 27 km/h | 32 km/h | 01:26:00 | SE | 26 km/h |
| 00:30:00 | 6° C | 5° C | 91% | 32 km/h | 38 km/h | 00:30:00 | SE | 28 km/h |
| 23:30:00 | 6° C | 5° C | 94% | 17 km/h | 31 km/h | 23:29:00 | SE | 18 km/h |
| 22:30:00 | 6° C | 6° C | 100% | 45 km/h | 52 km/h | 22:30:00 | SE | 41 km/h |
| 21:30:00 | 8° C | 4° C | 80% | 32 km/h | 49 km/h | 21:26:00 | SE | 27 km/h |
| 20:30:00 | 11° C | 2° C | 56% | 9 km/h | 14 km/h | 20:30:00 | SE | 9 km/h |
| 19:30:00 | 12° C | 1° C | 48% | 21 km/h | 28 km/h | 19:27:00 | SE | 19 km/h |
| 18:30:00 | 12° C | 2° C | 48% | 32 km/h | 41 km/h | 18:30:00 | SE | 21 km/h |
| 17:30:00 | 13° C | -0° C | 41% | 12 km/h | 20 km/h | 17:30:00 | SE | 12 km/h |
| 16:30:00 | 13° C | 0° C | 42% | 16 km/h | 29 km/h | 16:26:00 | SE | 16 km/h |
| 15:30:00 | 13° C | 5° C | 52% | 7 km/h | 11 km/h | 15:29:00 | SE | 5 km/h |
| 14:30:00 | 14° C | 5° C | 53% | 13 km/h | 17 km/h | 14:29:00 | E | 13 km/h |
| 13:30:00 | 13° C | 3° C | 56% | 10 km/h | 21 km/h | 13:29:00 | SE | 10 km/h |
| 12:30:00 | 12° C | 4° C | 63% | 5 km/h | 14 km/h | 12:26:00 | S | 6 km/h |
| 11:30:00 | 11° C | 4° C | 64% | 11 km/h | 18 km/h | 11:27:00 | SE | 11 km/h |
| 10:30:00 | 10° C | 5° C | 65% | 3 km/h | 15 km/h | 10:27:00 | S | 8 km/h |
| 09:30:00 | 9° C | 5° C | 72% | 14 km/h | 21 km/h | 09:27:00 | S | 16 km/h |
| 08:30:00 | 8° C | 4° C | 75% | 11 km/h | 18 km/h | 08:29:00 | SE | 9 km/h |
| 07:30:00 | 7° C | 3° C | 77% | 15 km/h | 24 km/h | 07:26:00 | SE | 16 km/h |
| 06:30:00 | 7° C | 4° C | 80% | 24 km/h | 27 km/h | 06:29:00 | S | 23 km/h |
| 05:30:00 | 7° C | 4° C | 79% | 11 km/h | 17 km/h | 05:26:00 | S | 12 km/h |
| 04:30:00 | 7° C | 4° C | 79% | 19 km/h | 24 km/h | 04:26:00 | S | 20 km/h |
| 03:30:00 | 7° C | 4° C | 84% | 23 km/h | 30 km/h | 03:27:00 | SE | 24 km/h |
Subpeak Weather
| Time | Avg. Air Temp | Dew Point | Avg. Rel Humidity | Avg. 2 Min Wind Speed | Max Gust Velocity | MGV Time | MGV Direction | Avg. Spot Wind Velocity |
|---|---|---|---|---|---|---|---|---|
| 2026-09-02 02:30:00 | 7° C | 4° C | 85% | 18 km/h | 24 km/h | 02:26:00 | SE | 18 km/h |
| 02:25:00 | 6° C | 4° C | 87% | 21 km/h | 26 km/h | 02:21:00 | S | 21 km/h |
| 02:20:00 | 6° C | 5° C | 88% | 22 km/h | 30 km/h | 02:16:00 | SE | 19 km/h |
| 02:15:00 | 6° C | 5° C | 91% | 20 km/h | 29 km/h | 02:15:00 | SE | 19 km/h |
| 02:10:00 | 7° C | 5° C | 88% | 19 km/h | 29 km/h | 02:06:00 | SE | 24 km/h |
| 02:05:00 | 7° C | 5° C | 88% | 21 km/h | 29 km/h | 02:03:00 | S | 21 km/h |
| 02:00:00 | 6° C | 5° C | 88% | 21 km/h | 25 km/h | 01:58:00 | SE | 22 km/h |
| 01:55:00 | 6° C | 5° C | 89% | 21 km/h | 28 km/h | 01:53:00 | S | 21 km/h |
| 01:50:00 | 6° C | 5° C | 92% | 20 km/h | 28 km/h | 01:48:00 | SE | 21 km/h |
| 01:45:00 | 6° C | 5° C | 94% | 20 km/h | 27 km/h | 01:45:00 | SE | 17 km/h |
| 01:40:00 | 6° C | 5° C | 93% | 18 km/h | 27 km/h | 01:37:00 | SE | 19 km/h |
| 01:35:00 | 6° C | 5° C | 93% | 19 km/h | 28 km/h | 01:32:00 | S | 21 km/h |
| 01:30:00 | 6° C | 5° C | 94% | 27 km/h | 32 km/h | 01:26:00 | SE | 26 km/h |




